Main page
METAR-TAF:

METAR-TAF

Airports :

Córdoba Airport

Córdoba, Spain

latitude: 37-51N, longitude: 004-51W, elevation: 90 m

Current weather observation

The report was made 32 minutes ago, at 03:30 UTC
Wind 1 kt from variable directions
Temperature 6°C
Humidity 93%
Pressure 1025 hPa
Visibility 10 km or more
no clouds below 1500 m and no cumulonimbus

METAR: LEBA 210330Z AUTO VRB01KT CAVOK 06/05 Q1025

Time: 05:02 (04:02 UTC)

Forecast

The report was made 2 hours and 2 minutes ago, at 02:00 UTC
Forecast valid from 21 at 03 UTC to 21 at 12 UTC
Wind 4 kt from the East
Visibility 10 km or more
no clouds below 1500 m and no cumulonimbus

TAF: LEBA 210200Z 2103/2112 09004KT CAVOK

Weather observations and forecasts of more than 4000 airports (METAR and TAF reports).

The available stations are represented by yellow and red dots on the map.

Hover mouse over dot to see the name of the station.

Then click to see weather observations and forecasts.

To change the map : click on the green buttons with a black cross to zoom in, on the green button with a dash to zoom out, or on the green arrows for adjacent maps.


METAR-TAF: